Time;durP1;ratioP1;P1;durP2;ratioP2;P2;SDS_P1;SDS_P2;PMS_P1;PMS_P2;Temp;Humidity;BMP_temperature;BMP_pressure;BME280_temperature;BME280_humidity;BME280_pressure;Samples;Min_cycle;Max_cycle;Signal;HPM_P1;HPM_P2
2023/01/25 00:01:22;;;;;;;4.47;2.03;;;26.10;65.20;;;;;;4177253;28;20063;-44
2023/01/25 00:03:44;;;;;;;4.50;1.92;;;26.10;65.30;;;;;;4182362;28;20107;-42
2023/01/25 00:06:07;;;;;;;4.88;2.00;;;26.10;65.30;;;;;;4177065;28;20106;-41
2023/01/25 00:08:30;;;;;;;3.25;2.08;;;26.10;65.20;;;;;;4175038;28;20033;-41
2023/01/25 00:10:52;;;;;;;4.32;2.20;;;26.10;65.40;;;;;;4183521;28;20090;-40
2023/01/25 00:13:15;;;;;;;4.18;2.22;;;26.10;65.50;;;;;;4180795;28;20465;-40
2023/01/25 00:15:38;;;;;;;4.35;2.22;;;26.20;65.60;;;;;;4174650;28;20115;-42
2023/01/25 00:18:00;;;;;;;4.22;1.90;;;26.20;65.30;;;;;;4170734;28;20036;-42
2023/01/25 00:20:22;;;;;;;3.10;1.80;;;26.20;65.10;;;;;;4160113;28;20040;-41
2023/01/25 00:22:45;;;;;;;3.53;1.90;;;26.20;65.00;;;;;;4174167;28;20033;-41
2023/01/25 00:25:07;;;;;;;2.90;1.90;;;26.30;65.20;;;;;;4181781;28;20057;-40
2023/01/25 00:27:30;;;;;;;3.40;1.90;;;26.30;65.10;;;;;;4181576;28;20041;-44
2023/01/25 00:29:52;;;;;;;4.18;2.00;;;26.30;65.00;;;;;;4163584;28;20030;-40
2023/01/25 00:32:15;;;;;;;3.10;1.80;;;26.30;65.00;;;;;;4171991;28;20041;-40
2023/01/25 00:34:49;;;;;;;4.10;2.03;;;26.30;65.00;;;;;;4177490;28;20041;-40
2023/01/25 00:37:24;;;;;;;3.28;1.75;;;26.40;65.00;;;;;;4173721;28;20061;-40
2023/01/25 00:39:47;;;;;;;2.67;1.80;;;26.40;64.80;;;;;;4177687;28;20095;-40
2023/01/25 00:42:14;;;;;;;2.88;1.70;;;26.40;64.70;;;;;;4175261;28;20064;-40
2023/01/25 00:44:36;;;;;;;3.80;1.63;;;26.40;64.60;;;;;;4175111;28;20362;-40
2023/01/25 00:46:59;;;;;;;3.27;1.83;;;26.40;64.80;;;;;;4175003;28;20102;-41
2023/01/25 00:49:21;;;;;;;4.05;1.90;;;26.50;64.70;;;;;;4175781;28;20044;-41
2023/01/25 00:51:44;;;;;;;3.67;1.75;;;26.50;64.70;;;;;;4176651;28;20485;-43
2023/01/25 00:54:06;;;;;;;3.10;1.80;;;26.50;64.70;;;;;;4178035;28;20036;-42
2023/01/25 00:56:28;;;;;;;2.50;1.52;;;26.50;64.60;;;;;;4177046;28;20032;-41
2023/01/25 00:58:51;;;;;;;2.67;1.45;;;26.50;64.50;;;;;;4173038;28;20440;-42
2023/01/25 01:01:13;;;;;;;2.13;1.60;;;26.60;64.70;;;;;;4175871;28;20481;-42
2023/01/25 01:03:35;;;;;;;3.83;1.65;;;26.60;64.50;;;;;;4174870;28;20068;-42
2023/01/25 01:06:11;;;;;;;2.10;1.38;;;26.60;64.60;;;;;;4172726;28;20056;-41
2023/01/25 01:08:37;;;;;;;2.63;1.70;;;26.60;64.70;;;;;;4177394;28;20056;-41
2023/01/25 01:11:01;;;;;;;2.72;1.50;;;26.60;64.70;;;;;;4179060;28;20104;-41
2023/01/25 01:13:23;;;;;;;3.28;1.80;;;26.60;64.70;;;;;;4178623;28;20041;-42
2023/01/25 01:15:46;;;;;;;2.67;1.80;;;26.60;64.60;;;;;;4181256;28;20044;-43
2023/01/25 01:18:08;;;;;;;2.88;1.75;;;26.70;64.60;;;;;;4175227;28;20415;-42
2023/01/25 01:20:31;;;;;;;2.90;1.65;;;26.70;64.50;;;;;;4185440;28;20048;-41
2023/01/25 01:22:56;;;;;;;2.95;1.83;;;26.70;65.20;;;;;;4171285;28;20454;-45
2023/01/25 01:25:18;;;;;;;2.25;1.50;;;26.70;64.60;;;;;;4183171;28;20057;-43
2023/01/25 01:27:41;;;;;;;2.70;1.55;;;26.70;64.40;;;;;;4188707;28;20428;-41
2023/01/25 01:30:03;;;;;;;2.92;1.90;;;26.80;64.50;;;;;;4172546;28;20037;-42
2023/01/25 01:32:26;;;;;;;3.03;1.63;;;26.80;64.40;;;;;;4178558;28;20076;-41
2023/01/25 01:34:48;;;;;;;3.30;2.10;;;26.80;64.40;;;;;;4183945;28;20078;-42
2023/01/25 01:37:10;;;;;;;1.67;1.50;;;26.80;64.30;;;;;;4184074;28;20075;-43
2023/01/25 01:39:33;;;;;;;2.63;1.77;;;26.80;64.40;;;;;;4183071;28;20457;-46
2023/01/25 01:41:55;;;;;;;2.25;1.60;;;26.80;64.40;;;;;;4181074;28;20044;-44
2023/01/25 01:44:21;;;;;;;3.45;1.67;;;26.80;64.50;;;;;;4176114;28;20076;-42
2023/01/25 01:46:52;;;;;;;2.15;1.50;;;26.80;64.40;;;;;;4182155;28;20049;-42
2023/01/25 01:49:28;;;;;;;4.25;1.73;;;26.80;64.40;;;;;;4171443;28;20445;-43
2023/01/25 01:51:57;;;;;;;2.30;1.80;;;26.80;64.40;;;;;;4178955;28;20075;-40
2023/01/25 01:54:25;;;;;;;2.30;1.80;;;26.80;64.50;;;;;;4174646;28;20473;-43
2023/01/25 01:56:59;;;;;;;3.28;1.67;;;26.90;64.50;;;;;;4167746;28;20078;-45
2023/01/25 01:59:25;;;;;;;2.90;1.60;;;26.90;64.40;;;;;;4179543;28;20097;-41
2023/01/25 02:01:48;;;;;;;2.40;1.63;;;27.00;64.30;;;;;;4181310;28;20453;-43
2023/01/25 02:06:20;;;;;;;2.20;1.50;;;27.00;64.30;;;;;;4177975;28;21817;-71
2023/01/25 02:08:44;;;;;;;2.42;1.63;;;27.00;64.20;;;;;;4188949;28;20044;-71
2023/01/25 02:11:08;;;;;;;1.90;1.45;;;27.10;64.20;;;;;;4196086;28;20036;-71
2023/01/25 02:13:36;;;;;;;2.58;1.42;;;27.10;64.20;;;;;;4204962;28;20074;-73
2023/01/25 02:15:59;;;;;;;2.40;1.27;;;27.10;64.10;;;;;;4203395;28;20040;-71
2023/01/25 02:18:22;;;;;;;1.40;1.10;;;27.10;64.20;;;;;;4203054;28;20036;-71
2023/01/25 02:20:47;;;;;;;2.20;1.30;;;27.10;64.20;;;;;;4205126;28;21678;-78
2023/01/25 02:23:37;;;;;;;2.78;1.30;;;27.10;64.20;;;;;;4204456;28;20036;-78
2023/01/25 02:26:03;;;;;;;2.25;1.58;;;27.10;64.10;;;;;;4203800;28;20791;-80
2023/01/25 02:28:31;;;;;;;2.38;1.42;;;27.20;64.20;;;;;;4190326;28;20048;-80
2023/01/25 02:30:54;;;;;;;1.70;1.33;;;27.20;64.20;;;;;;4181417;28;20045;-79
2023/01/25 02:33:16;;;;;;;1.75;1.40;;;27.20;64.20;;;;;;4202822;28;20043;-83
2023/01/25 02:35:43;;;;;;;1.60;1.30;;;27.20;64.60;;;;;;4184666;28;20036;-79
2023/01/25 02:38:11;;;;;;;1.80;1.33;;;27.20;64.30;;;;;;4197705;28;20560;-79
2023/01/25 02:40:42;;;;;;;3.45;1.38;;;27.20;64.20;;;;;;4185778;28;20040;-77
2023/01/25 02:43:07;;;;;;;2.15;1.58;;;27.30;64.20;;;;;;4209931;28;20059;-79
2023/01/25 02:45:33;;;;;;;2.33;1.20;;;27.30;64.20;;;;;;4207644;28;20088;-78
2023/01/25 02:47:56;;;;;;;1.60;1.25;;;27.30;64.10;;;;;;4201266;28;20072;-77
2023/01/25 02:50:18;;;;;;;1.77;1.30;;;27.30;64.10;;;;;;4203216;28;20140;-82
2023/01/25 02:52:40;;;;;;;1.83;1.40;;;27.30;64.00;;;;;;4205250;28;20525;-80
2023/01/25 02:55:03;;;;;;;1.98;1.50;;;27.40;64.10;;;;;;4193004;28;20071;-82
2023/01/25 02:57:25;;;;;;;1.65;1.35;;;27.40;64.00;;;;;;4193705;28;21150;-81
2023/01/25 02:59:48;;;;;;;1.95;1.33;;;27.40;64.10;;;;;;4187441;28;20537;-81
2023/01/25 03:02:10;;;;;;;1.20;1.05;;;27.40;64.00;;;;;;4171920;28;20505;-80
2023/01/25 03:04:33;;;;;;;2.17;1.30;;;27.40;64.00;;;;;;4194950;28;20427;-82
2023/01/25 03:06:55;;;;;;;1.65;1.30;;;27.40;63.90;;;;;;4190905;28;20048;-80
2023/01/25 03:09:20;;;;;;;2.00;1.35;;;27.50;63.90;;;;;;4182168;28;20037;-80
2023/01/25 03:11:43;;;;;;;1.70;1.40;;;27.50;63.90;;;;;;4178296;28;20045;-81
2023/01/25 03:14:05;;;;;;;1.75;1.40;;;27.50;63.90;;;;;;4178205;28;20054;-78
2023/01/25 03:16:29;;;;;;;2.47;1.50;;;27.50;63.80;;;;;;4190399;28;20067;-78
2023/01/25 03:18:55;;;;;;;1.35;1.20;;;27.50;63.80;;;;;;4193870;28;20134;-84
2023/01/25 03:21:22;;;;;;;1.58;1.30;;;27.50;63.80;;;;;;4183758;28;20036;-79
2023/01/25 03:23:45;;;;;;;2.60;1.33;;;27.50;63.70;;;;;;4195660;28;20044;-79
2023/01/25 03:26:12;;;;;;;;;;;27.60;63.80;;;;;;4176959;28;20059;-80
2023/01/25 03:28:35;;;;;;;1.85;1.20;;;27.60;63.80;;;;;;4197672;28;19912;-79
2023/01/25 03:30:57;;;;;;;1.33;0.93;;;27.60;63.70;;;;;;4177108;28;20032;-73
2023/01/25 03:33:20;;;;;;;2.10;1.42;;;27.70;63.70;;;;;;4191375;28;20072;-74
2023/01/25 03:35:42;;;;;;;2.33;1.33;;;27.70;63.60;;;;;;4196634;28;20047;-78
2023/01/25 03:38:04;;;;;;;1.77;1.35;;;27.70;63.70;;;;;;4202307;28;20594;-75
2023/01/25 03:40:30;;;;;;;2.03;1.27;;;27.70;63.60;;;;;;4192752;28;20052;-80
2023/01/25 03:42:52;;;;;;;2.17;1.25;;;27.70;63.60;;;;;;4201023;28;20183;-79
2023/01/25 03:45:15;;;;;;;1.13;0.88;;;27.70;63.60;;;;;;4186825;28;21071;-77
2023/01/25 03:47:41;;;;;;;2.58;1.00;;;27.80;63.70;;;;;;4182168;28;20097;-76
2023/01/25 03:50:07;;;;;;;1.33;1.20;;;27.80;63.70;;;;;;4189427;28;20424;-82
2023/01/25 03:52:37;;;;;;;1.65;1.05;;;27.80;63.70;;;;;;4178446;28;20500;-81
2023/01/25 03:54:59;;;;;;;1.73;1.10;;;27.80;63.60;;;;;;4187239;28;20697;-81
2023/01/25 03:57:22;;;;;;;0.80;0.80;;;27.90;63.80;;;;;;4172793;28;20048;-82
2023/01/25 03:59:44;;;;;;;1.83;1.20;;;27.90;63.70;;;;;;4190285;28;20039;-82
2023/01/25 04:02:11;;;;;;;1.35;1.20;;;27.90;63.70;;;;;;4180557;28;20059;-79
2023/01/25 04:04:36;;;;;;;2.47;1.40;;;28.00;64.00;;;;;;4189704;28;20060;-81
2023/01/25 04:06:58;;;;;;;1.83;1.40;;;27.90;61.80;;;;;;4187479;28;20097;-77
2023/01/25 04:09:24;;;;;;;2.55;1.40;;;27.70;60.30;;;;;;4192034;28;20580;-78
2023/01/25 04:11:49;;;;;;;1.70;1.20;;;27.50;59.30;;;;;;4193971;28;20040;-85
2023/01/25 04:14:12;;;;;;;2.55;1.75;;;27.40;59.00;;;;;;4180453;28;20413;-77
2023/01/25 04:16:35;;;;;;;1.42;1.33;;;27.30;58.10;;;;;;4182526;28;20107;-80
2023/01/25 04:18:57;;;;;;;3.10;2.10;;;27.20;58.00;;;;;;4171929;28;20044;-81
2023/01/25 04:21:23;;;;;;;2.08;1.70;;;27.10;57.30;;;;;;4193997;28;20397;-81
2023/01/25 04:23:48;;;;;;;2.15;1.60;;;27.00;57.10;;;;;;4192583;28;20137;-85
2023/01/25 04:26:12;;;;;;;1.55;1.40;;;26.90;57.30;;;;;;4173120;28;20044;-85
2023/01/25 04:28:41;;;;;;;2.20;1.75;;;26.80;57.00;;;;;;4182845;28;20060;-82
2023/01/25 04:31:06;;;;;;;2.13;1.50;;;26.70;57.60;;;;;;4175566;28;20028;-78
2023/01/25 04:33:32;;;;;;;2.90;2.10;;;26.60;57.00;;;;;;4171184;28;20535;-72
2023/01/25 04:36:18;;;;;;;1.83;1.52;;;26.60;57.20;;;;;;4186719;28;20151;-74
2023/01/25 04:38:43;;;;;;;2.60;1.88;;;26.50;56.70;;;;;;4182767;28;20040;-73
2023/01/25 04:41:06;;;;;;;2.15;1.52;;;26.40;57.60;;;;;;4184986;28;20572;-76
2023/01/25 04:43:32;;;;;;;1.85;1.63;;;26.40;57.20;;;;;;4198816;28;20040;-73
2023/01/25 04:45:54;;;;;;;3.05;1.90;;;26.30;57.20;;;;;;4192034;28;20773;-71
2023/01/25 04:48:29;;;;;;;2.45;1.80;;;26.20;57.40;;;;;;4174874;28;20101;-73
2023/01/25 04:50:51;;;;;;;3.28;2.13;;;26.20;57.10;;;;;;4189532;28;20070;-73
2023/01/25 04:53:14;;;;;;;2.55;1.80;;;26.20;57.20;;;;;;4183325;28;20331;-74
2023/01/25 04:55:40;;;;;;;2.25;1.52;;;26.10;57.50;;;;;;4184763;28;20051;-74
2023/01/25 04:58:03;;;;;;;2.15;1.75;;;26.10;57.30;;;;;;4189543;28;20032;-73
2023/01/25 05:00:26;;;;;;;1.60;1.40;;;26.00;56.60;;;;;;4187906;28;20604;-72
2023/01/25 05:02:49;;;;;;;2.42;1.77;;;26.00;57.30;;;;;;4189683;28;20462;-72
2023/01/25 05:05:27;;;;;;;2.08;1.65;;;25.90;57.40;;;;;;4188199;28;20146;-76
2023/01/25 05:07:52;;;;;;;2.90;1.85;;;25.90;57.50;;;;;;4190110;28;20804;-72
2023/01/25 05:10:17;;;;;;;2.47;1.60;;;25.90;57.00;;;;;;4190337;28;20071;-73
2023/01/25 05:12:43;;;;;;;1.90;1.50;;;25.90;56.80;;;;;;4194761;28;20382;-72
2023/01/25 05:15:06;;;;;;;1.92;1.73;;;25.80;56.70;;;;;;4188374;28;20045;-72
2023/01/25 05:17:32;;;;;;;2.08;1.40;;;25.80;56.80;;;;;;4190079;28;20041;-72
2023/01/25 05:19:57;;;;;;;2.47;1.85;;;25.80;56.80;;;;;;4197671;28;20028;-72
2023/01/25 05:22:26;;;;;;;1.95;1.60;;;25.80;56.50;;;;;;4193114;28;20036;-75
2023/01/25 05:24:49;;;;;;;3.30;1.88;;;25.80;56.70;;;;;;4193265;28;20047;-73
2023/01/25 05:27:16;;;;;;;2.38;1.67;;;25.80;56.30;;;;;;4187546;28;20047;-73
2023/01/25 05:29:41;;;;;;;2.03;1.50;;;25.70;56.40;;;;;;4187672;28;20051;-73
2023/01/25 05:32:24;;;;;;;2.30;1.58;;;25.70;56.10;;;;;;4172753;28;20037;-72
2023/01/25 05:34:47;;;;;;;1.95;1.50;;;25.70;56.10;;;;;;4189313;28;20505;-71
2023/01/25 05:37:12;;;;;;;2.03;1.58;;;25.70;56.30;;;;;;4189007;28;20044;-72
2023/01/25 05:39:35;;;;;;;2.13;1.55;;;25.70;56.30;;;;;;4176454;28;20037;-74
2023/01/25 05:42:00;;;;;;;2.00;1.60;;;25.70;55.90;;;;;;4172534;28;20045;-73
2023/01/25 05:44:29;;;;;;;1.98;1.52;;;25.70;56.00;;;;;;4188869;28;20133;-77
2023/01/25 05:46:54;;;;;;;2.45;1.70;;;25.70;55.60;;;;;;4191620;28;20048;-74
2023/01/25 05:49:18;;;;;;;2.10;1.40;;;25.70;55.80;;;;;;4174174;28;20451;-72
2023/01/25 05:51:41;;;;;;;1.73;1.25;;;25.70;55.60;;;;;;4191579;28;20040;-73
2023/01/25 05:54:04;;;;;;;1.87;1.50;;;25.70;55.80;;;;;;4187658;28;20032;-72
2023/01/25 05:56:31;;;;;;;2.70;1.52;;;25.70;55.70;;;;;;4190347;28;20048;-75
2023/01/25 05:58:55;;;;;;;2.70;1.50;;;25.70;55.70;;;;;;4187724;28;20282;-71
2023/01/25 06:01:24;;;;;;;1.55;1.40;;;25.70;55.30;;;;;;4190512;28;20437;-73
2023/01/25 06:03:47;;;;;;;1.80;1.40;;;25.70;55.50;;;;;;4179693;28;20092;-73
2023/01/25 06:06:09;;;;;;;2.05;1.40;;;25.70;55.40;;;;;;4187798;28;20055;-72
2023/01/25 06:08:32;;;;;;;1.90;1.40;;;25.70;55.00;;;;;;4174485;28;20045;-72
2023/01/25 06:10:58;;;;;;;2.33;1.33;;;25.70;54.80;;;;;;4186774;28;20068;-74
2023/01/25 06:13:21;;;;;;;1.90;1.33;;;25.70;55.00;;;;;;4176444;28;20045;-72
2023/01/25 06:15:51;;;;;;;2.00;1.45;;;25.70;54.90;;;;;;4183388;28;20109;-71
2023/01/25 06:18:13;;;;;;;2.60;1.75;;;25.70;54.80;;;;;;4184070;28;20044;-72
2023/01/25 06:20:35;;;;;;;1.90;1.45;;;25.70;54.80;;;;;;4181170;28;20045;-73
2023/01/25 06:22:58;;;;;;;1.80;1.50;;;25.70;54.80;;;;;;4195312;28;20039;-72
2023/01/25 06:25:23;;;;;;;2.17;1.63;;;25.70;54.60;;;;;;4171468;28;20045;-73
2023/01/25 06:27:46;;;;;;;2.08;1.52;;;25.70;54.80;;;;;;4189300;28;20032;-73
2023/01/25 06:30:12;;;;;;;2.15;1.30;;;25.70;54.60;;;;;;4173891;28;20037;-70
2023/01/25 06:32:34;;;;;;;1.75;1.48;;;25.70;54.60;;;;;;4186739;28;20041;-71
2023/01/25 06:34:56;;;;;;;2.05;1.60;;;25.70;54.60;;;;;;4196230;28;20036;-71
2023/01/25 06:37:20;;;;;;;1.83;1.45;;;25.70;54.60;;;;;;4190908;28;20052;-71
2023/01/25 06:39:42;;;;;;;1.95;1.55;;;25.70;54.50;;;;;;4200010;28;20111;-72
2023/01/25 06:42:05;;;;;;;2.28;1.60;;;25.70;54.40;;;;;;4197406;28;20099;-72
2023/01/25 06:44:30;;;;;;;1.98;1.30;;;25.60;54.30;;;;;;4197125;28;20707;-72
2023/01/25 06:46:54;;;;;;;2.08;1.50;;;25.60;54.30;;;;;;4189749;28;20462;-71
2023/01/25 06:49:16;;;;;;;1.80;1.40;;;25.60;54.40;;;;;;4188373;28;20580;-69
2023/01/25 06:51:39;;;;;;;2.38;1.50;;;25.50;54.30;;;;;;4194663;28;20044;-71
2023/01/25 06:54:03;;;;;;;2.05;1.50;;;25.50;54.50;;;;;;4185925;28;20123;-72
2023/01/25 06:56:28;;;;;;;1.88;1.55;;;25.50;54.30;;;;;;4187720;28;20040;-72
2023/01/25 06:58:51;;;;;;;2.13;1.60;;;25.40;54.40;;;;;;4191906;28;20127;-71
2023/01/25 07:01:20;;;;;;;3.50;1.80;;;25.40;54.70;;;;;;4175739;28;20037;-69
2023/01/25 07:04:03;;;;;;;3.33;1.60;;;25.30;54.70;;;;;;4171063;28;20045;-72
2023/01/25 07:06:26;;;;;;;2.58;1.52;;;25.20;55.00;;;;;;4186852;28;20395;-72
2023/01/25 07:08:52;;;;;;;2.03;1.60;;;25.20;55.50;;;;;;4174025;28;20041;-72
2023/01/25 07:11:17;;;;;;;2.17;1.50;;;25.10;55.40;;;;;;4190870;28;20047;-72
2023/01/25 07:13:44;;;;;;;1.42;1.33;;;25.10;55.70;;;;;;4166638;28;20041;-72
2023/01/25 07:16:11;;;;;;;2.20;1.40;;;25.00;55.80;;;;;;4174259;28;20048;-73
2023/01/25 07:18:37;;;;;;;2.80;1.55;;;25.00;56.00;;;;;;4174497;28;20048;-73
2023/01/25 07:21:05;;;;;;;1.55;1.40;;;24.90;55.90;;;;;;4176633;28;20044;-72
2023/01/25 07:23:52;;;;;;;1.90;1.38;;;24.90;55.70;;;;;;4178792;28;20119;-73
2023/01/25 07:26:29;;;;;;;2.53;1.38;;;24.80;55.80;;;;;;4181958;28;20802;-72
2023/01/25 07:28:53;;;;;;;6.20;1.48;;;24.80;56.20;;;;;;4170227;28;20544;-73
2023/01/25 07:31:17;;;;;;;5.03;1.67;;;24.70;56.20;;;;;;4184655;28;20069;-74
2023/01/25 07:33:39;;;;;;;;;;;24.70;56.30;;;;;;4187316;28;20429;-75
2023/01/25 07:36:02;;;;;;;3.67;1.50;;;24.60;56.50;;;;;;4187086;28;19920;-72
2023/01/25 07:38:24;;;;;;;1.95;1.48;;;24.60;56.20;;;;;;4182018;28;20457;-74
2023/01/25 07:40:56;;;;;;;2.67;1.95;;;24.60;56.50;;;;;;4184115;28;20032;-75
2023/01/25 07:43:19;;;;;;;1.65;1.23;;;24.50;56.40;;;;;;4187050;28;20417;-71
2023/01/25 07:45:51;;;;;;;2.03;1.50;;;24.50;56.60;;;;;;4181178;28;20101;-72
2023/01/25 07:48:17;;;;;;;1.70;1.40;;;24.50;56.60;;;;;;4187746;28;20397;-77
2023/01/25 07:50:40;;;;;;;2.05;1.48;;;24.40;56.70;;;;;;4185041;28;20047;-77
2023/01/25 07:53:13;;;;;;;;;;;;;;;;;;;;;
2023/01/25 07:55:38;;;;;;;1.98;1.45;;;24.40;56.40;;;;;;4183541;28;20082;-76
2023/01/25 07:58:10;;;;;;;1.85;1.00;;;24.30;56.40;;;;;;4184703;28;20067;-75
2023/01/25 08:00:44;;;;;;;1.38;1.00;;;24.20;56.10;;;;;;4187115;28;20386;-78
2023/01/25 08:03:06;;;;;;;;;;;24.20;57.10;;;;;;4165875;28;20041;-75
2023/01/25 08:05:46;;;;;;;1.55;1.20;;;24.20;61.90;;;;;;4182995;28;19927;-77
2023/01/25 08:08:17;;;;;;;3.00;1.30;;;24.20;64.80;;;;;;4188235;28;20037;-78
2023/01/25 08:10:49;;;;;;;4.80;1.45;;;24.30;63.50;;;;;;4169555;28;20071;-71
2023/01/25 08:13:11;;;;;;;1.48;1.15;;;24.30;61.10;;;;;;4188106;28;20819;-75
2023/01/25 08:15:38;;;;;;;2.63;1.35;;;24.20;59.80;;;;;;4177661;28;20111;-73
2023/01/25 08:18:00;;;;;;;2.20;1.20;;;24.20;59.10;;;;;;4157570;22;20108;-46
2023/01/25 08:20:23;;;;;;;2.17;1.30;;;24.10;58.70;;;;;;4147387;28;20613;-47
2023/01/25 08:22:45;;;;;;;1.63;1.40;;;24.10;58.20;;;;;;4148322;28;20037;-41
2023/01/25 08:25:08;;;;;;;1.58;1.08;;;24.00;58.00;;;;;;4143177;28;20572;-45
2023/01/25 08:27:33;;;;;;;2.13;1.30;;;24.00;57.90;;;;;;4148553;28;20580;-43
2023/01/25 08:29:55;;;;;;;2.15;1.50;;;24.00;58.60;;;;;;4143226;28;20038;-43
2023/01/25 08:32:18;;;;;;;2.40;1.60;;;24.00;63.80;;;;;;4143299;28;20059;-41
2023/01/25 08:34:40;;;;;;;1.63;1.48;;;24.00;67.10;;;;;;4142847;28;20040;-43
2023/01/25 08:37:03;;;;;;;3.45;1.23;;;24.10;68.30;;;;;;4145229;28;20130;-42
2023/01/25 08:39:25;;;;;;;2.20;1.52;;;24.20;64.70;;;;;;4140662;28;20096;-46
2023/01/25 08:41:47;;;;;;;3.40;1.30;;;24.20;61.80;;;;;;4146335;28;20649;-42
2023/01/25 08:44:10;;;;;;;4.70;1.30;;;24.10;60.10;;;;;;4143723;28;20041;-44
2023/01/25 08:46:33;;;;;;;10.88;1.60;;;24.10;59.20;;;;;;4140065;28;20371;-45
2023/01/25 08:48:57;;;;;;;4.45;1.30;;;24.00;58.30;;;;;;4143102;28;20056;-42
2023/01/25 08:51:19;;;;;;;2.75;0.95;;;23.90;57.60;;;;;;4145393;28;20049;-42
2023/01/25 08:53:42;;;;;;;2.10;1.02;;;23.80;56.90;;;;;;4146267;28;20042;-43
2023/01/25 08:56:07;;;;;;;2.35;1.35;;;23.80;61.40;;;;;;4141464;28;20046;-47
2023/01/25 08:58:30;;;;;;;1.83;1.08;;;23.80;66.70;;;;;;4140462;28;20044;-46
2023/01/25 09:00:53;;;;;;;3.55;1.40;;;23.80;69.20;;;;;;4141668;28;20601;-44
2023/01/25 09:03:16;;;;;;;2.13;1.30;;;24.00;69.90;;;;;;4142736;28;20506;-45
2023/01/25 09:05:40;;;;;;;1.77;1.23;;;24.00;64.10;;;;;;4145956;28;20048;-43
2023/01/25 09:08:03;;;;;;;2.22;1.50;;;23.90;61.50;;;;;;4133811;28;20271;-44
2023/01/25 09:10:26;;;;;;;1.95;1.42;;;23.80;59.90;;;;;;4128155;28;20117;-45
2023/01/25 09:12:48;;;;;;;2.42;1.40;;;23.80;59.50;;;;;;4121717;28;20046;-44
2023/01/25 09:15:11;;;;;;;1.95;1.27;;;23.60;58.80;;;;;;4122097;28;20042;-46
2023/01/25 09:17:37;;;;;;;2.55;1.30;;;23.60;59.40;;;;;;4123096;28;20060;-48
2023/01/25 09:20:00;;;;;;;1.67;1.35;;;23.60;66.40;;;;;;4121218;28;20099;-41
2023/01/25 09:22:22;;;;;;;1.73;1.35;;;23.60;70.00;;;;;;4121871;28;20046;-40
2023/01/25 09:24:45;;;;;;;2.70;1.30;;;23.80;71.80;;;;;;4115902;28;20117;-43
2023/01/25 09:27:07;;;;;;;2.08;1.40;;;23.90;70.60;;;;;;4122035;28;20037;-42
2023/01/25 09:29:29;;;;;;;4.53;1.48;;;23.90;65.40;;;;;;4126380;28;20648;-45
2023/01/25 09:31:52;;;;;;;2.13;1.20;;;23.80;62.60;;;;;;4128430;28;20040;-44
2023/01/25 09:34:15;;;;;;;1.65;1.10;;;23.70;60.90;;;;;;4123500;28;20081;-45
2023/01/25 09:36:38;;;;;;;2.22;1.08;;;23.60;60.00;;;;;;4123954;28;20054;-42
2023/01/25 09:39:00;;;;;;;2.10;1.40;;;23.50;63.20;;;;;;4127117;28;20034;-44
2023/01/25 09:41:41;;;;;;;2.15;1.70;;;23.50;68.40;;;;;;4125953;28;20431;-41
2023/01/25 09:44:11;;;;;;;3.10;1.58;;;23.60;71.90;;;;;;4126050;28;20066;-42
2023/01/25 09:46:48;;;;;;;1.95;1.40;;;23.70;73.50;;;;;;4124652;28;20060;-42
2023/01/25 09:49:41;;;;;;;1.40;1.17;;;23.80;70.30;;;;;;4125535;28;20502;-45
2023/01/25 09:52:49;;;;;;;2.85;1.10;;;23.90;69.80;;;;;;4125791;28;20042;-45
2023/01/25 09:55:17;;;;;;;3.30;1.55;;;24.20;69.20;;;;;;4123233;28;20579;-49
2023/01/25 09:57:42;;;;;;;2.17;1.10;;;24.40;68.60;;;;;;4120110;28;20068;-42
2023/01/25 10:00:18;;;;;;;1.63;0.80;;;24.60;68.10;;;;;;4122117;28;20045;-45
2023/01/25 10:03:02;;;;;;;2.03;0.95;;;24.70;67.70;;;;;;4134022;28;20068;-42
2023/01/25 10:05:30;;;;;;;3.03;0.90;;;24.90;67.40;;;;;;4123657;28;20030;-40
2023/01/25 10:08:13;;;;;;;2.42;1.35;;;25.10;67.20;;;;;;4118593;28;20038;-40
2023/01/25 10:10:42;;;;;;;1.13;0.80;;;25.10;66.90;;;;;;4125327;28;20523;-45
2023/01/25 10:13:17;;;;;;;1.48;0.70;;;25.30;66.70;;;;;;4127953;28;20057;-41
2023/01/25 10:15:49;;;;;;;2.72;0.80;;;25.50;66.50;;;;;;4132096;28;20553;-40
2023/01/25 10:18:45;;;;;;;1.15;0.82;;;25.60;66.30;;;;;;4149970;28;20155;-42
2023/01/25 10:21:27;;;;;;;0.90;0.90;;;25.70;66.10;;;;;;4146880;28;20030;-43
2023/01/25 10:24:07;;;;;;;3.20;1.05;;;25.80;65.80;;;;;;4144316;28;20046;-44
2023/01/25 10:26:34;;;;;;;1.30;1.05;;;25.90;65.70;;;;;;4135535;28;20042;-44
2023/01/25 10:29:00;;;;;;;4.63;0.90;;;26.00;65.60;;;;;;4153930;28;20061;-41
2023/01/25 10:31:55;;;;;;;2.05;1.00;;;26.10;65.60;;;;;;4151633;28;20125;-42
2023/01/25 10:34:24;;;;;;;2.63;0.98;;;26.10;65.40;;;;;;4157361;28;20038;-39
2023/01/25 10:36:56;;;;;;;2.40;1.13;;;26.20;65.20;;;;;;4150190;28;20075;-42
2023/01/25 10:39:19;;;;;;;1.88;1.20;;;26.30;65.10;;;;;;4148249;28;20061;-43
2023/01/25 10:41:43;;;;;;;;;;;26.40;65.00;;;;;;4154565;28;20040;-42
2023/01/25 10:44:25;;;;;;;3.58;0.95;;;26.50;64.90;;;;;;4140544;28;20801;-42
2023/01/25 10:46:59;;;;;;;1.63;1.00;;;26.50;64.90;;;;;;4155822;28;20045;-42
2023/01/25 10:49:46;;;;;;;1.45;0.70;;;26.60;64.80;;;;;;4148634;28;20046;-41
2023/01/25 10:52:24;;;;;;;2.05;0.90;;;26.60;64.70;;;;;;4149797;28;20034;-43
2023/01/25 10:54:50;;;;;;;1.70;0.93;;;26.70;64.60;;;;;;4154366;28;20045;-46
2023/01/25 10:57:18;;;;;;;0.82;0.82;;;26.80;64.60;;;;;;4150031;28;20085;-42
2023/01/25 10:59:49;;;;;;;1.20;0.80;;;26.80;64.50;;;;;;4150772;28;20434;-42
2023/01/25 11:02:36;;;;;;;1.23;0.98;;;26.90;64.40;;;;;;4153088;28;20042;-44
2023/01/25 11:04:58;;;;;;;2.88;1.00;;;26.90;64.40;;;;;;4145609;28;20038;-42
2023/01/25 11:07:29;;;;;;;2.58;0.80;;;27.00;64.30;;;;;;4147180;28;20120;-46
2023/01/25 11:09:52;;;;;;;1.40;1.05;;;27.00;64.30;;;;;;4138163;28;20415;-42
2023/01/25 11:12:20;;;;;;;3.30;0.90;;;27.10;64.20;;;;;;4144812;28;20045;-46
2023/01/25 11:14:42;;;;;;;1.25;1.02;;;27.10;64.20;;;;;;4147849;28;20290;-43
2023/01/25 11:17:19;;;;;;;2.15;0.85;;;27.20;64.20;;;;;;4152672;28;20057;-43
2023/01/25 11:19:42;;;;;;;0.80;0.70;;;27.20;64.10;;;;;;4143000;28;20053;-42
2023/01/25 11:22:17;;;;;;;0.82;0.70;;;27.30;64.00;;;;;;4140235;28;20419;-47
2023/01/25 11:24:40;;;;;;;1.60;0.70;;;27.30;64.00;;;;;;4149981;28;20037;-42
2023/01/25 11:27:26;;;;;;;0.75;0.70;;;27.40;64.00;;;;;;4154283;28;20490;-43
2023/01/25 11:30:11;;;;;;;2.22;0.75;;;27.40;63.80;;;;;;4148028;28;20499;-42
2023/01/25 11:32:34;;;;;;;2.75;1.05;;;27.50;63.90;;;;;;4151895;28;20048;-43
2023/01/25 11:34:56;;;;;;;0.88;0.70;;;27.50;63.80;;;;;;4153817;28;20041;-44
2023/01/25 11:37:24;;;;;;;0.95;0.70;;;27.50;63.70;;;;;;4152678;28;20054;-41
2023/01/25 11:40:11;;;;;;;3.35;0.90;;;27.50;63.60;;;;;;4152986;28;20042;-41
2023/01/25 11:42:57;;;;;;;1.27;0.82;;;27.60;63.70;;;;;;4148613;28;20038;-42
2023/01/25 11:45:37;;;;;;;0.68;0.68;;;27.60;63.70;;;;;;4149391;28;20473;-43
2023/01/25 11:48:18;;;;;;;1.27;0.80;;;27.70;63.70;;;;;;4145857;28;20042;-41
2023/01/25 11:51:00;;;;;;;1.13;0.70;;;27.70;63.70;;;;;;4156985;28;20052;-44
2023/01/25 11:53:44;;;;;;;1.08;0.70;;;27.70;63.60;;;;;;4154317;28;20045;-48
2023/01/25 11:56:28;;;;;;;1.75;1.20;;;27.80;63.70;;;;;;4148648;28;20709;-43
2023/01/25 11:59:16;;;;;;;0.65;0.65;;;27.80;63.70;;;;;;4152305;28;20037;-48
2023/01/25 12:02:16;;;;;;;1.30;1.10;;;27.90;63.70;;;;;;4148603;28;20121;-44
2023/01/25 12:05:03;;;;;;;1.35;1.10;;;27.90;63.30;;;;;;4144533;28;20106;-49
2023/01/25 12:07:41;;;;;;;2.50;1.23;;;27.80;63.20;;;;;;4147004;28;20080;-47
2023/01/25 12:10:22;;;;;;;1.23;1.13;;;27.80;63.50;;;;;;4144078;28;20041;-41
2023/01/25 12:13:05;;;;;;;1.83;1.38;;;27.80;63.60;;;;;;4145080;28;20042;-43
2023/01/25 12:16:04;;;;;;;2.40;1.33;;;27.90;63.60;;;;;;4142636;28;20481;-42
2023/01/25 12:19:08;;;;;;;5.18;1.27;;;27.90;63.80;;;;;;4144913;28;20045;-42
2023/01/25 12:21:52;;;;;;;3.75;1.52;;;27.90;64.00;;;;;;4148014;28;20038;-43
2023/01/25 12:24:32;;;;;;;2.63;1.30;;;27.90;63.80;;;;;;4151123;28;20041;-46
2023/01/25 12:27:21;;;;;;;3.17;1.38;;;27.60;59.00;;;;;;4153483;28;20038;-47
2023/01/25 12:29:55;;;;;;;1.08;0.93;;;27.30;59.30;;;;;;4148729;28;20037;-46
2023/01/25 12:32:30;;;;;;;;;;;27.20;59.60;;;;;;4151991;28;20128;-43
2023/01/25 12:35:03;;;;;;;;;;;27.20;60.20;;;;;;4154443;28;19917;-44
2023/01/25 12:37:32;;;;;;;1.85;1.20;;;27.20;60.70;;;;;;4134527;28;20461;-45
2023/01/25 12:40:09;;;;;;;3.28;1.23;;;27.30;61.10;;;;;;4152792;28;20065;-41
2023/01/25 12:42:57;;;;;;;1.20;1.00;;;27.40;61.50;;;;;;4150916;28;20041;-49
2023/01/25 12:45:24;;;;;;;1.48;1.00;;;27.40;61.80;;;;;;4145969;28;20060;-50
2023/01/25 12:47:55;;;;;;;1.92;1.10;;;27.50;61.90;;;;;;4151499;28;20487;-48
2023/01/25 12:50:35;;;;;;;1.15;0.90;;;27.50;62.10;;;;;;4151603;28;20044;-45
2023/01/25 12:53:03;;;;;;;1.42;0.98;;;27.60;62.40;;;;;;4150946;28;20572;-50
2023/01/25 12:55:26;;;;;;;1.67;1.20;;;27.70;62.70;;;;;;4147689;28;20045;-42